Terminal Aerodrome Forecast
Issued by NWS Austin/San Antonio, TX

Home | Current Version | Previous Version | Text Only | Print | Product List | Glossary On
Versions: 1 2 3 4 5 6 7 8 9 10 11 12 13 14
000
FTUS44 KEWX 281100
TAFAUS
TAF
KAUS 281126Z 2812/2918 VRB03KT P6SM SKC
     FM281500 13008KT P6SM SCT050
     FM281800 15008KT P6SM VCSH SCT050
     FM290300 16005KT P6SM FEW070
     FM291000 15003KT P6SM BKN030=

USA.gov is the U.S. government's official web portal to all federal, state and local government web resources and services.